createdAt,value
2022-12-14T00:01:56.082Z,100.00
2022-12-14T00:04:22.568Z,100.00
2022-12-14T00:06:49.031Z,100.00
2022-12-14T00:09:15.504Z,100.00
2022-12-14T00:11:42.236Z,100.00
2022-12-14T00:14:08.709Z,100.00
2022-12-14T00:16:35.316Z,100.00
2022-12-14T00:19:01.907Z,100.00
2022-12-14T00:21:28.454Z,100.00
2022-12-14T00:23:54.967Z,100.00
2022-12-14T00:26:24.204Z,100.00
2022-12-14T00:28:52.314Z,100.00
2022-12-14T00:31:19.171Z,100.00
2022-12-14T00:33:45.817Z,100.00
2022-12-14T00:36:12.418Z,100.00
2022-12-14T00:38:39.431Z,100.00
2022-12-14T00:41:05.958Z,100.00
2022-12-14T00:43:32.479Z,100.00
2022-12-14T00:45:58.964Z,100.00
2022-12-14T00:48:26.037Z,100.00
2022-12-14T00:50:53.322Z,100.00
2022-12-14T00:53:19.875Z,100.00
2022-12-14T00:55:49.165Z,100.00
2022-12-14T00:58:17.380Z,100.00
2022-12-14T01:00:47.225Z,100.00
2022-12-14T01:03:13.988Z,100.00
2022-12-14T01:05:40.650Z,100.00
2022-12-14T01:08:07.199Z,100.00
2022-12-14T01:10:33.694Z,100.00
2022-12-14T01:13:00.161Z,100.00
2022-12-14T01:15:26.634Z,100.00
2022-12-14T01:17:53.152Z,100.00
2022-12-14T01:20:19.748Z,100.00
2022-12-14T01:22:46.329Z,100.00
2022-12-14T01:25:12.818Z,100.00
2022-12-14T01:27:39.283Z,100.00
2022-12-14T01:30:06.308Z,100.00
2022-12-14T01:32:34.308Z,100.00
2022-12-14T01:35:00.763Z,100.00
2022-12-14T01:37:27.227Z,100.00
2022-12-14T01:39:53.694Z,100.00
2022-12-14T01:42:20.201Z,100.00
2022-12-14T01:44:51.155Z,100.00
2022-12-14T01:47:25.358Z,100.00
2022-12-14T01:49:57.786Z,100.00
2022-12-14T01:52:26.916Z,100.00
2022-12-14T01:55:14.982Z,100.00
2022-12-14T01:57:49.560Z,100.00
2022-12-14T02:00:16.920Z,100.00
2022-12-14T02:03:20.907Z,100.00
2022-12-14T02:05:50.845Z,100.00
2022-12-14T02:08:17.334Z,100.00
2022-12-14T02:10:44.178Z,100.00
2022-12-14T02:13:29.460Z,100.00
2022-12-14T02:15:56.249Z,100.00
2022-12-14T02:18:27.655Z,100.00
2022-12-14T02:21:12.782Z,100.00
2022-12-14T02:24:13.262Z,100.00
2022-12-14T02:27:10.153Z,100.00
2022-12-14T02:29:48.521Z,100.00
2022-12-14T02:32:26.291Z,100.00
2022-12-14T02:35:11.381Z,100.00
2022-12-14T02:38:06.218Z,100.00
2022-12-14T02:40:50.667Z,100.00
2022-12-14T02:43:22.481Z,100.00
2022-12-14T02:46:07.444Z,100.00
2022-12-14T02:48:41.801Z,100.00
2022-12-14T02:51:38.858Z,100.00
2022-12-14T02:54:12.713Z,100.00
2022-12-14T02:56:45.057Z,100.00
2022-12-14T02:59:11.518Z,100.00
2022-12-14T03:01:38.298Z,100.00
2022-12-14T03:04:05.341Z,100.00
2022-12-14T03:06:31.810Z,100.00
2022-12-14T03:09:04.193Z,100.00
2022-12-14T03:11:50.611Z,100.00
2022-12-14T03:14:19.310Z,100.00
2022-12-14T03:16:52.023Z,100.00
2022-12-14T03:19:26.907Z,100.00
2022-12-14T03:21:59.083Z,100.00
2022-12-14T03:24:29.104Z,100.00
2022-12-14T03:27:05.793Z,100.00
2022-12-14T03:29:38.612Z,100.00
2022-12-14T03:32:10.134Z,100.00
2022-12-14T03:34:39.607Z,100.00
2022-12-14T03:37:14.463Z,100.00
2022-12-14T03:39:41.583Z,100.00
2022-12-14T03:42:25.136Z,100.00
2022-12-14T03:44:51.463Z,100.00
2022-12-14T03:47:34.125Z,100.00
2022-12-14T03:50:01.656Z,100.00
2022-12-14T03:53:03.415Z,100.00
2022-12-14T03:55:45.049Z,100.00
2022-12-14T03:58:18.585Z,100.00
2022-12-14T04:01:05.582Z,100.00
2022-12-14T04:03:37.955Z,100.00
2022-12-14T04:06:14.672Z,100.00
2022-12-14T04:08:46.948Z,100.00
2022-12-14T04:11:34.238Z,100.00
2022-12-14T04:14:35.216Z,100.00
2022-12-14T04:17:21.918Z,100.00
2022-12-14T04:20:09.423Z,100.00
2022-12-14T04:22:41.600Z,100.00
2022-12-14T04:25:33.356Z,100.00
2022-12-14T04:28:42.952Z,100.00
2022-12-14T04:31:12.044Z,100.00
2022-12-14T04:33:46.643Z,100.00
2022-12-14T04:36:36.871Z,100.00
2022-12-14T04:39:08.439Z,100.00
2022-12-14T04:41:41.223Z,100.00
2022-12-14T04:44:12.677Z,100.00
2022-12-14T04:46:40.930Z,100.00
2022-12-14T04:49:12.848Z,100.00
2022-12-14T04:52:17.185Z,100.00
2022-12-14T04:54:48.498Z,100.00
2022-12-14T04:57:25.707Z,100.00
2022-12-14T04:59:52.176Z,100.00
2022-12-14T05:02:47.224Z,100.00
2022-12-14T05:05:17.707Z,100.00
2022-12-14T05:08:17.610Z,100.00
2022-12-14T05:10:44.739Z,100.00
2022-12-14T05:13:20.130Z,100.00
2022-12-14T05:15:48.835Z,100.00
2022-12-14T05:18:15.369Z,100.00
2022-12-14T05:20:41.834Z,100.00
2022-12-14T05:23:08.343Z,100.00
2022-12-14T05:25:34.885Z,100.00
2022-12-14T05:28:01.382Z,100.00
2022-12-14T05:30:27.929Z,100.00
2022-12-14T05:32:54.418Z,100.00
2022-12-14T05:35:20.903Z,100.00
2022-12-14T05:37:47.357Z,100.00
2022-12-14T05:40:15.968Z,100.00
2022-12-14T05:42:45.344Z,100.00
2022-12-14T05:45:14.313Z,100.00
2022-12-14T05:47:41.027Z,100.00
2022-12-14T05:50:07.828Z,100.00
2022-12-14T05:52:34.303Z,100.00
2022-12-14T05:55:04.071Z,100.00
2022-12-14T05:57:31.303Z,100.00
2022-12-14T05:59:57.791Z,100.00
2022-12-14T06:02:24.326Z,100.00
2022-12-14T06:04:50.891Z,100.00
2022-12-14T06:07:17.372Z,100.00
2022-12-14T06:09:43.852Z,100.00
2022-12-14T06:12:10.302Z,100.00
2022-12-14T06:14:36.905Z,100.00
2022-12-14T06:17:03.378Z,100.00
2022-12-14T06:19:30.777Z,100.00
2022-12-14T06:21:57.232Z,100.00
2022-12-14T06:24:23.698Z,100.00
2022-12-14T06:26:50.163Z,100.00
2022-12-14T06:29:20.124Z,100.00
2022-12-14T06:31:49.292Z,100.00
2022-12-14T06:34:16.076Z,100.00
2022-12-14T06:36:42.654Z,100.00
2022-12-14T06:39:12.425Z,100.00
2022-12-14T06:41:40.195Z,100.00
2022-12-14T06:44:11.049Z,100.00
2022-12-14T06:46:37.634Z,100.00
2022-12-14T06:49:04.571Z,100.00
2022-12-14T06:51:31.060Z,100.00
2022-12-14T06:53:57.673Z,100.00
2022-12-14T06:56:25.684Z,100.00
2022-12-14T06:58:53.949Z,99.36
2022-12-14T07:01:21.538Z,98.49
2022-12-14T07:03:49.271Z,98.37
2022-12-14T07:06:15.791Z,98.75
2022-12-14T07:08:42.511Z,97.60
2022-12-14T07:11:10.793Z,97.57
2022-12-14T07:13:37.299Z,97.29
2022-12-14T07:16:05.011Z,96.90
2022-12-14T07:18:31.637Z,96.31
2022-12-14T07:20:58.995Z,96.29
2022-12-14T07:23:28.132Z,96.60
2022-12-14T07:26:00.237Z,96.03
2022-12-14T07:28:27.297Z,96.44
2022-12-14T07:30:57.585Z,97.25
2022-12-14T07:33:24.567Z,96.60
2022-12-14T07:35:51.332Z,96.74
2022-12-14T07:38:18.043Z,96.16
2022-12-14T07:40:44.893Z,95.97
2022-12-14T07:43:11.379Z,96.01
2022-12-14T07:45:37.963Z,94.87
2022-12-14T07:48:07.043Z,94.52
2022-12-14T07:50:33.528Z,95.12
2022-12-14T07:53:00.026Z,95.08
2022-12-14T07:55:26.550Z,95.64
2022-12-14T07:57:53.005Z,94.46
2022-12-14T08:00:19.674Z,93.85
2022-12-14T08:02:46.425Z,94.26
2022-12-14T08:05:13.050Z,94.84
2022-12-14T08:07:39.531Z,93.90
2022-12-14T08:10:06.625Z,94.35
2022-12-14T08:12:33.079Z,94.58
2022-12-14T08:14:59.553Z,94.40
2022-12-14T08:17:26.029Z,93.67
2022-12-14T08:19:52.494Z,94.22
2022-12-14T08:22:18.945Z,93.78
2022-12-14T08:24:49.660Z,93.26
2022-12-14T08:27:16.377Z,93.30
2022-12-14T08:29:42.834Z,94.03
2022-12-14T08:32:09.330Z,95.64
2022-12-14T08:34:35.777Z,95.54
2022-12-14T08:37:02.281Z,93.66
2022-12-14T08:39:28.739Z,93.54
2022-12-14T08:41:56.043Z,95.29
2022-12-14T08:44:22.523Z,96.42
2022-12-14T08:46:49.289Z,95.65
2022-12-14T08:49:16.047Z,94.43
2022-12-14T08:51:42.825Z,95.11
2022-12-14T08:54:09.366Z,95.56
2022-12-14T08:56:36.041Z,95.48
2022-12-14T08:59:02.625Z,96.05
2022-12-14T09:01:33.274Z,95.15
2022-12-14T09:04:05.268Z,94.50
2022-12-14T09:06:33.357Z,94.50
2022-12-14T09:08:59.868Z,95.49
2022-12-14T09:11:26.337Z,97.46
2022-12-14T09:13:56.073Z,96.29
2022-12-14T09:16:23.057Z,95.32
2022-12-14T09:18:50.300Z,96.25
2022-12-14T09:21:17.940Z,96.05
2022-12-14T09:23:44.677Z,94.76
2022-12-14T09:26:16.600Z,94.48
2022-12-14T09:28:47.481Z,92.80
2022-12-14T09:31:15.356Z,93.11
2022-12-14T09:33:41.855Z,92.94
2022-12-14T09:36:12.937Z,92.65
2022-12-14T09:38:39.619Z,92.95
2022-12-14T09:41:27.136Z,92.93
2022-12-14T09:43:56.073Z,91.96
2022-12-14T09:46:33.786Z,91.55
2022-12-14T09:49:01.866Z,91.21
2022-12-14T09:51:34.927Z,89.37
2022-12-14T09:54:04.119Z,89.74
2022-12-14T09:56:30.617Z,88.62
2022-12-14T09:58:58.203Z,88.75
2022-12-14T10:01:43.857Z,88.94
2022-12-14T10:04:47.723Z,88.63
2022-12-14T10:07:36.366Z,88.71
2022-12-14T10:10:29.064Z,87.78
2022-12-14T10:13:17.742Z,88.31
2022-12-14T10:16:22.898Z,90.17
2022-12-14T10:19:01.678Z,91.55
2022-12-14T10:21:42.272Z,91.59
2022-12-14T10:24:12.909Z,91.70
2022-12-14T10:26:48.225Z,91.62
2022-12-14T10:29:19.439Z,92.69
2022-12-14T10:32:16.316Z,92.04
2022-12-14T10:34:43.786Z,91.10
2022-12-14T10:37:32.163Z,91.33
2022-12-14T10:40:17.573Z,91.90
2022-12-14T10:42:57.444Z,91.67
2022-12-14T10:45:44.153Z,92.67
2022-12-14T10:48:37.299Z,93.49
2022-12-14T10:51:10.886Z,93.46
2022-12-14T10:54:08.584Z,94.19
2022-12-14T10:56:35.293Z,94.39
2022-12-14T10:59:17.172Z,94.13
2022-12-14T11:01:44.849Z,92.48
2022-12-14T11:04:40.435Z,86.22
2022-12-14T11:07:08.821Z,83.94
2022-12-14T11:09:35.756Z,82.45
2022-12-14T11:12:22.477Z,81.80
2022-12-14T11:14:52.879Z,83.05
2022-12-14T11:17:30.749Z,84.85
2022-12-14T11:20:22.150Z,85.12
2022-12-14T11:22:53.279Z,83.96
2022-12-14T11:25:42.045Z,83.30
2022-12-14T11:28:25.685Z,81.88
2022-12-14T11:30:57.694Z,82.83
2022-12-14T11:33:26.687Z,84.58
2022-12-14T11:35:53.524Z,85.99
2022-12-14T11:38:20.071Z,87.63
2022-12-14T11:40:46.536Z,85.66
2022-12-14T11:43:24.636Z,85.03
2022-12-14T11:45:51.540Z,81.91
2022-12-14T11:48:23.194Z,82.29
2022-12-14T11:50:49.875Z,83.06
2022-12-14T11:53:18.017Z,82.60
2022-12-14T11:55:50.770Z,81.17
2022-12-14T11:58:20.022Z,80.70
2022-12-14T12:01:13.053Z,81.85
2022-12-14T12:03:42.632Z,81.98
2022-12-14T12:06:12.313Z,81.63
2022-12-14T12:08:40.594Z,80.10
2022-12-14T12:11:20.245Z,77.58
2022-12-14T12:13:50.805Z,77.48
2022-12-14T12:16:19.798Z,77.52
2022-12-14T12:19:12.354Z,77.30
2022-12-14T12:21:43.475Z,76.29
2022-12-14T12:24:12.845Z,78.39
2022-12-14T12:26:58.583Z,79.98
2022-12-14T12:29:50.229Z,79.98
2022-12-14T12:32:28.523Z,78.51
2022-12-14T12:35:15.893Z,78.70
2022-12-14T12:38:07.106Z,80.46
2022-12-14T12:40:35.435Z,81.11
2022-12-14T12:43:16.128Z,81.90
2022-12-14T12:45:45.778Z,83.06
2022-12-14T12:48:16.041Z,83.76
2022-12-14T12:50:49.685Z,83.82
2022-12-14T12:53:24.412Z,84.35
2022-12-14T12:55:53.551Z,84.10
2022-12-14T12:58:22.774Z,84.14
2022-12-14T13:00:51.482Z,83.85
2022-12-14T13:03:29.352Z,84.32
2022-12-14T13:05:56.635Z,84.96
2022-12-14T13:08:34.822Z,85.33
2022-12-14T13:13:51.449Z,88.02
2022-12-14T13:16:26.639Z,89.47
2022-12-14T13:19:08.825Z,90.13
2022-12-14T13:21:44.375Z,90.00
2022-12-14T13:24:17.797Z,91.92
2022-12-14T13:27:16.914Z,90.40
2022-12-14T13:29:52.848Z,91.42
2022-12-14T13:32:36.915Z,93.11
2022-12-14T13:35:28.400Z,95.29
2022-12-14T13:37:58.114Z,95.99
2022-12-14T13:40:34.219Z,97.54
2022-12-14T13:43:00.623Z,98.25
2022-12-14T13:45:38.899Z,99.59
2022-12-14T13:48:24.825Z,99.14
2022-12-14T13:51:01.798Z,98.96
2022-12-14T13:53:35.174Z,100.00
2022-12-14T13:56:02.158Z,100.00
2022-12-14T13:58:42.634Z,100.00
2022-12-14T14:01:47.813Z,100.00
2022-12-14T14:04:18.523Z,100.00
2022-12-14T14:06:55.022Z,100.00
2022-12-14T14:09:30.527Z,100.00
2022-12-14T14:12:16.210Z,100.00
2022-12-14T14:15:07.567Z,100.00
2022-12-14T14:17:38.994Z,100.00
2022-12-14T14:20:25.389Z,100.00
2022-12-14T14:23:14.636Z,100.00
2022-12-14T14:25:49.402Z,100.00
2022-12-14T14:28:22.482Z,100.00
2022-12-14T14:30:54.048Z,100.00
2022-12-14T14:33:48.099Z,100.00
2022-12-14T14:36:17.863Z,100.00
2022-12-14T14:38:44.402Z,100.00
2022-12-14T14:41:20.510Z,100.00
2022-12-14T14:43:49.791Z,100.00
2022-12-14T14:46:22.189Z,100.00
2022-12-14T14:48:55.585Z,100.00
2022-12-14T14:51:29.754Z,100.00
2022-12-14T14:57:53.450Z,100.00
2022-12-14T15:00:19.898Z,100.00
2022-12-14T15:02:46.424Z,100.00
2022-12-14T15:08:20.878Z,100.00
2022-12-14T15:10:47.403Z,100.00
2022-12-14T15:13:25.057Z,100.00
2022-12-14T15:15:53.183Z,100.00
2022-12-14T15:18:24.557Z,100.00
2022-12-14T15:21:01.355Z,100.00
2022-12-14T15:23:37.734Z,100.00
2022-12-14T15:26:16.066Z,100.00
2022-12-14T15:28:43.263Z,100.00
2022-12-14T15:31:09.812Z,100.00
2022-12-14T15:33:36.909Z,100.00
2022-12-14T15:36:04.880Z,100.00
2022-12-14T15:38:32.410Z,100.00
2022-12-14T15:41:05.131Z,100.00
2022-12-14T15:43:32.146Z,100.00
2022-12-14T15:46:04.114Z,100.00
2022-12-14T15:48:34.512Z,100.00
2022-12-14T15:51:03.862Z,100.00
2022-12-14T15:53:33.164Z,100.00
2022-12-14T15:56:06.751Z,100.00
2022-12-14T15:58:37.555Z,100.00
2022-12-14T16:01:39.121Z,100.00
2022-12-14T16:04:07.648Z,100.00
2022-12-14T16:06:37.615Z,100.00
2022-12-14T16:09:07.983Z,100.00
2022-12-14T16:11:44.829Z,100.00
2022-12-14T16:14:18.123Z,100.00
2022-12-14T16:16:44.918Z,100.00
2022-12-14T16:19:27.388Z,100.00
2022-12-14T16:22:24.011Z,100.00
2022-12-14T16:25:22.168Z,100.00
2022-12-14T16:27:53.288Z,100.00
2022-12-14T16:30:27.281Z,100.00
2022-12-14T16:33:16.632Z,100.00
2022-12-14T16:35:43.254Z,100.00
2022-12-14T16:38:14.474Z,100.00
2022-12-14T16:40:55.525Z,100.00
2022-12-14T16:43:39.239Z,100.00
2022-12-14T16:46:05.695Z,100.00
2022-12-14T16:48:32.823Z,100.00
2022-12-14T16:51:37.875Z,100.00
2022-12-14T16:54:22.318Z,100.00
2022-12-14T16:56:49.062Z,100.00
2022-12-14T16:59:30.849Z,100.00
2022-12-14T17:01:58.063Z,100.00
2022-12-14T17:04:24.725Z,100.00
2022-12-14T17:06:55.307Z,100.00
2022-12-14T17:09:22.734Z,100.00
2022-12-14T17:11:50.133Z,100.00
2022-12-14T17:14:17.531Z,100.00
2022-12-14T17:16:48.114Z,100.00
2022-12-14T17:19:48.135Z,100.00
2022-12-14T17:22:40.989Z,100.00
2022-12-14T17:25:07.954Z,100.00
2022-12-14T17:27:34.427Z,100.00
2022-12-14T17:30:00.901Z,100.00
2022-12-14T17:32:29.604Z,100.00
2022-12-14T17:34:56.250Z,100.00
2022-12-14T17:37:23.460Z,100.00
2022-12-14T17:39:50.457Z,100.00
2022-12-14T17:42:17.958Z,100.00
2022-12-14T17:44:47.068Z,100.00
2022-12-14T17:47:13.957Z,100.00
2022-12-14T17:49:42.203Z,100.00
2022-12-14T17:52:16.736Z,100.00
2022-12-14T17:54:43.239Z,100.00
2022-12-14T17:57:15.559Z,100.00
2022-12-14T17:59:47.284Z,100.00
2022-12-14T18:02:30.127Z,100.00
2022-12-14T18:04:56.756Z,100.00
2022-12-14T18:07:23.212Z,100.00
2022-12-14T18:09:52.904Z,100.00
2022-12-14T18:12:23.868Z,100.00
2022-12-14T18:14:50.732Z,100.00
2022-12-14T18:17:18.672Z,100.00
2022-12-14T18:19:45.194Z,100.00
2022-12-14T18:22:14.603Z,100.00
2022-12-14T18:24:41.190Z,100.00
2022-12-14T18:27:07.646Z,100.00
2022-12-14T18:29:34.117Z,100.00
2022-12-14T18:32:00.804Z,100.00
2022-12-14T18:34:27.350Z,100.00
2022-12-14T18:36:54.163Z,100.00
2022-12-14T18:39:20.690Z,100.00
2022-12-14T18:41:47.151Z,100.00
2022-12-14T18:44:13.841Z,100.00
2022-12-14T18:46:40.392Z,100.00
2022-12-14T18:49:06.947Z,100.00
2022-12-14T18:51:33.488Z,100.00
2022-12-14T18:54:00.400Z,100.00
2022-12-14T18:56:29.166Z,100.00
2022-12-14T18:58:56.192Z,100.00
2022-12-14T19:01:23.999Z,100.00
2022-12-14T19:03:50.856Z,100.00
2022-12-14T19:09:06.043Z,100.00
2022-12-14T19:11:34.526Z,100.00
2022-12-14T19:14:01.070Z,100.00
2022-12-14T19:16:28.027Z,100.00
2022-12-14T19:18:54.572Z,100.00
2022-12-14T19:21:21.104Z,100.00
2022-12-14T19:23:47.574Z,100.00
2022-12-14T19:26:14.050Z,100.00
2022-12-14T19:28:40.555Z,100.00
2022-12-14T19:31:09.569Z,100.00
2022-12-14T19:33:36.172Z,100.00
2022-12-14T19:36:09.568Z,100.00
2022-12-14T19:38:36.327Z,100.00
2022-12-14T19:41:05.556Z,100.00
2022-12-14T19:43:32.499Z,100.00
2022-12-14T19:45:59.825Z,100.00
2022-12-14T19:48:26.583Z,100.00
2022-12-14T19:50:53.664Z,100.00
2022-12-14T19:53:23.753Z,100.00
2022-12-14T19:55:53.861Z,100.00
2022-12-14T19:58:21.970Z,100.00
2022-12-14T20:00:49.737Z,100.00
2022-12-14T20:03:16.413Z,100.00
2022-12-14T20:05:52.444Z,100.00
2022-12-14T20:08:18.960Z,100.00
2022-12-14T20:10:45.442Z,100.00
2022-12-14T20:13:11.897Z,100.00
2022-12-14T20:15:38.829Z,100.00
2022-12-14T20:18:07.237Z,100.00
2022-12-14T20:20:34.145Z,100.00
2022-12-14T20:23:00.641Z,100.00
2022-12-14T20:25:27.119Z,100.00
2022-12-14T20:27:53.606Z,100.00
2022-12-14T20:30:20.428Z,100.00
2022-12-14T20:32:49.447Z,100.00
2022-12-14T20:35:18.590Z,100.00
2022-12-14T20:37:45.744Z,100.00
2022-12-14T20:40:12.636Z,100.00
2022-12-14T20:42:39.155Z,100.00
2022-12-14T20:45:07.431Z,100.00
2022-12-14T20:47:34.184Z,100.00
2022-12-14T20:50:00.745Z,100.00
2022-12-14T20:52:27.229Z,100.00
2022-12-14T20:54:53.701Z,100.00
2022-12-14T20:57:20.180Z,100.00
2022-12-14T20:59:46.950Z,100.00
2022-12-14T21:02:16.940Z,100.00
2022-12-14T21:04:43.512Z,100.00
2022-12-14T21:07:09.990Z,100.00
2022-12-14T21:09:36.503Z,100.00
2022-12-14T21:12:21.181Z,100.00
2022-12-14T21:14:52.148Z,100.00
2022-12-14T21:17:19.955Z,100.00
2022-12-14T21:19:46.460Z,100.00
2022-12-14T21:22:14.394Z,100.00
2022-12-14T21:27:27.962Z,100.00
2022-12-14T21:29:54.449Z,100.00
2022-12-14T21:32:21.011Z,100.00
2022-12-14T21:34:47.559Z,100.00
2022-12-14T21:37:14.155Z,100.00
2022-12-14T21:39:40.610Z,100.00
2022-12-14T21:42:13.905Z,100.00
2022-12-14T21:44:41.754Z,100.00
2022-12-14T21:47:10.230Z,100.00
2022-12-14T21:49:37.920Z,100.00
2022-12-14T21:52:07.528Z,100.00
2022-12-14T21:54:34.245Z,100.00
2022-12-14T21:57:19.407Z,100.00
2022-12-14T21:59:45.935Z,100.00
2022-12-14T22:02:17.563Z,100.00
2022-12-14T22:04:47.107Z,100.00
2022-12-14T22:07:15.314Z,100.00
2022-12-14T22:09:41.825Z,100.00
2022-12-14T22:12:08.465Z,100.00
2022-12-14T22:14:35.128Z,100.00
2022-12-14T22:17:01.717Z,100.00
2022-12-14T22:19:28.310Z,100.00
2022-12-14T22:21:54.810Z,100.00
2022-12-14T22:24:22.026Z,100.00
2022-12-14T22:26:49.691Z,100.00
2022-12-14T22:29:17.137Z,100.00
2022-12-14T22:31:43.972Z,100.00
2022-12-14T22:34:19.322Z,100.00
2022-12-14T22:36:46.011Z,100.00
2022-12-14T22:39:12.475Z,100.00
2022-12-14T22:41:38.970Z,100.00
2022-12-14T22:44:05.534Z,100.00
2022-12-14T22:46:34.928Z,100.00
2022-12-14T22:49:01.447Z,100.00
2022-12-14T22:51:29.208Z,100.00
2022-12-14T22:53:56.096Z,100.00
2022-12-14T22:56:30.164Z,100.00
2022-12-14T22:59:04.413Z,100.00
2022-12-14T23:01:31.149Z,100.00
2022-12-14T23:03:58.398Z,100.00
2022-12-14T23:06:25.078Z,100.00
2022-12-14T23:09:10.059Z,100.00
2022-12-14T23:11:55.314Z,100.00
2022-12-14T23:14:40.660Z,100.00
2022-12-14T23:17:25.926Z,100.00
2022-12-14T23:20:10.777Z,100.00
2022-12-14T23:22:56.370Z,100.00
2022-12-14T23:25:41.349Z,100.00
2022-12-14T23:28:26.146Z,100.00
2022-12-14T23:31:11.229Z,100.00
2022-12-14T23:33:56.443Z,100.00
2022-12-14T23:36:41.661Z,100.00
2022-12-14T23:39:26.597Z,100.00
2022-12-14T23:42:11.939Z,100.00
2022-12-14T23:44:56.981Z,100.00
2022-12-14T23:47:42.127Z,100.00
2022-12-14T23:50:27.436Z,100.00
2022-12-14T23:53:12.450Z,100.00
2022-12-14T23:55:57.705Z,100.00
2022-12-14T23:58:43.026Z,100.00
